sensor_id;sensor_type;location;lat;lon;timestamp;pressure;altitude;pressure_sealevel;temperature;humidity
77023;BME280;65952;51.440;-2.054;2023-04-25T00:01:30;100277.06;;;6.15;78.05
77023;BME280;65952;51.440;-2.054;2023-04-25T00:03:57;100276.22;;;6.15;77.92
77023;BME280;65952;51.440;-2.054;2023-04-25T00:06:22;100284.66;;;6.10;77.73
77023;BME280;65952;51.440;-2.054;2023-04-25T00:08:52;100286.34;;;6.11;77.26
77023;BME280;65952;51.440;-2.054;2023-04-25T00:11:18;100289.97;;;6.10;76.66
77023;BME280;65952;51.440;-2.054;2023-04-25T00:13:43;100290.41;;;6.15;76.12
77023;BME280;65952;51.440;-2.054;2023-04-25T00:16:08;100289.44;;;6.16;76.17
77023;BME280;65952;51.440;-2.054;2023-04-25T00:18:34;100292.09;;;6.16;76.25
77023;BME280;65952;51.440;-2.054;2023-04-25T00:20:59;100287.72;;;6.15;76.56
77023;BME280;65952;51.440;-2.054;2023-04-25T00:23:25;100292.09;;;6.16;76.38
77023;BME280;65952;51.440;-2.054;2023-04-25T00:25:51;100298.81;;;6.21;76.55
77023;BME280;65952;51.440;-2.054;2023-04-25T00:28:17;100303.44;;;6.18;76.45
77023;BME280;65952;51.440;-2.054;2023-04-25T00:30:43;100305.97;;;6.10;76.85
77023;BME280;65952;51.440;-2.054;2023-04-25T00:33:08;100312.69;;;6.05;77.05
77023;BME280;65952;51.440;-2.054;2023-04-25T00:35:34;100308.34;;;6.04;77.36
77023;BME280;65952;51.440;-2.054;2023-04-25T00:38:00;100305.81;;;6.02;77.13
77023;BME280;65952;51.440;-2.054;2023-04-25T00:40:25;100311.13;;;6.02;76.83
77023;BME280;65952;51.440;-2.054;2023-04-25T00:42:53;100304.53;;;5.96;76.68
77023;BME280;65952;51.440;-2.054;2023-04-25T00:45:19;100310.97;;;5.94;76.76
77023;BME280;65952;51.440;-2.054;2023-04-25T00:47:45;100308.56;;;5.91;76.41
77023;BME280;65952;51.440;-2.054;2023-04-25T00:50:12;100314.88;;;5.90;76.12
77023;BME280;65952;51.440;-2.054;2023-04-25T00:52:43;100313.31;;;5.87;76.28
77023;BME280;65952;51.440;-2.054;2023-04-25T00:55:11;100315.84;;;5.89;75.87
77023;BME280;65952;51.440;-2.054;2023-04-25T00:57:37;100315.41;;;5.74;75.49
77023;BME280;65952;51.440;-2.054;2023-04-25T01:00:05;100322.41;;;5.75;75.44
77023;BME280;65952;51.440;-2.054;2023-04-25T01:02:32;100318.19;;;5.72;75.23
77023;BME280;65952;51.440;-2.054;2023-04-25T01:04:58;100334.06;;;5.74;75.03
77023;BME280;65952;51.440;-2.054;2023-04-25T01:07:23;100333.59;;;5.68;74.58
77023;BME280;65952;51.440;-2.054;2023-04-25T01:09:51;100333.59;;;5.68;73.77
77023;BME280;65952;51.440;-2.054;2023-04-25T01:12:16;100337.09;;;5.59;73.48
77023;BME280;65952;51.440;-2.054;2023-04-25T01:14:42;100335.28;;;5.60;72.78
77023;BME280;65952;51.440;-2.054;2023-04-25T01:17:08;100335.28;;;5.60;72.85
77023;BME280;65952;51.440;-2.054;2023-04-25T01:19:34;100337.25;;;5.58;73.27
77023;BME280;65952;51.440;-2.054;2023-04-25T01:21:59;100335.41;;;5.58;73.16
77023;BME280;65952;51.440;-2.054;2023-04-25T01:24:25;100343.34;;;5.48;73.09
77023;BME280;65952;51.440;-2.054;2023-04-25T01:26:51;100341.66;;;5.37;73.34
77023;BME280;65952;51.440;-2.054;2023-04-25T01:29:18;100343.50;;;5.47;72.96
77023;BME280;65952;51.440;-2.054;2023-04-25T01:31:44;100338.22;;;5.26;72.05
77023;BME280;65952;51.440;-2.054;2023-04-25T01:34:10;100337.25;;;5.27;71.09
77023;BME280;65952;51.440;-2.054;2023-04-25T01:36:35;100337.13;;;5.28;70.42
77023;BME280;65952;51.440;-2.054;2023-04-25T01:39:01;100342.19;;;5.31;70.30
77023;BME280;65952;51.440;-2.054;2023-04-25T01:41:27;100341.16;;;5.23;70.09
77023;BME280;65952;51.440;-2.054;2023-04-25T01:43:52;100349.41;;;5.19;69.90
77023;BME280;65952;51.440;-2.054;2023-04-25T01:46:17;100346.03;;;5.17;69.55
77023;BME280;65952;51.440;-2.054;2023-04-25T01:48:43;100353.88;;;5.19;69.61
77023;BME280;65952;51.440;-2.054;2023-04-25T01:51:08;100349.94;;;5.13;69.53
77023;BME280;65952;51.440;-2.054;2023-04-25T01:53:35;100356.47;;;5.09;69.83
77023;BME280;65952;51.440;-2.054;2023-04-25T01:56:00;100354.81;;;5.08;69.42
77023;BME280;65952;51.440;-2.054;2023-04-25T01:58:25;100347.34;;;5.02;69.33
77023;BME280;65952;51.440;-2.054;2023-04-25T02:00:51;100356.16;;;5.02;69.05
77023;BME280;65952;51.440;-2.054;2023-04-25T02:03:16;100349.69;;;4.95;69.17
77023;BME280;65952;51.440;-2.054;2023-04-25T02:05:41;100360.72;;;4.91;69.33
77023;BME280;65952;51.440;-2.054;2023-04-25T02:08:08;100351.19;;;4.88;68.85
77023;BME280;65952;51.440;-2.054;2023-04-25T02:10:35;100351.44;;;4.85;68.53
77023;BME280;65952;51.440;-2.054;2023-04-25T02:13:00;100361.25;;;4.84;67.88
77023;BME280;65952;51.440;-2.054;2023-04-25T02:15:26;100363.03;;;4.84;67.88
77023;BME280;65952;51.440;-2.054;2023-04-25T02:17:52;100366.44;;;4.86;67.90
77023;BME280;65952;51.440;-2.054;2023-04-25T02:20:19;100360.66;;;4.81;68.05
77023;BME280;65952;51.440;-2.054;2023-04-25T02:22:45;100362.88;;;4.76;68.03
77023;BME280;65952;51.440;-2.054;2023-04-25T02:25:11;100368.28;;;4.74;68.22
77023;BME280;65952;51.440;-2.054;2023-04-25T02:27:37;100376.53;;;4.71;68.58
77023;BME280;65952;51.440;-2.054;2023-04-25T02:30:03;100371.00;;;4.63;69.09
77023;BME280;65952;51.440;-2.054;2023-04-25T02:32:30;100369.44;;;4.60;69.25
77023;BME280;65952;51.440;-2.054;2023-04-25T02:34:55;100362.63;;;4.46;69.79
77023;BME280;65952;51.440;-2.054;2023-04-25T02:37:23;100364.72;;;4.31;70.36
77023;BME280;65952;51.440;-2.054;2023-04-25T02:39:49;100361.00;;;4.22;71.03
77023;BME280;65952;51.440;-2.054;2023-04-25T02:42:15;100371.78;;;4.21;71.38
77023;BME280;65952;51.440;-2.054;2023-04-25T02:44:40;100368.91;;;4.13;71.88
77023;BME280;65952;51.440;-2.054;2023-04-25T02:47:06;100364.00;;;3.97;72.27
77023;BME280;65952;51.440;-2.054;2023-04-25T02:49:31;100362.19;;;3.86;72.88
77023;BME280;65952;51.440;-2.054;2023-04-25T02:51:57;100359.94;;;3.70;73.42
77023;BME280;65952;51.440;-2.054;2023-04-25T02:54:22;100369.84;;;3.56;73.95
77023;BME280;65952;51.440;-2.054;2023-04-25T02:56:47;100379.13;;;3.51;74.39
77023;BME280;65952;51.440;-2.054;2023-04-25T02:59:13;100374.88;;;3.48;74.70
77023;BME280;65952;51.440;-2.054;2023-04-25T03:01:38;100379.97;;;3.40;75.35
77023;BME280;65952;51.440;-2.054;2023-04-25T03:04:05;100392.63;;;3.36;75.38
77023;BME280;65952;51.440;-2.054;2023-04-25T03:06:30;100390.94;;;3.35;75.62
77023;BME280;65952;51.440;-2.054;2023-04-25T03:08:56;100389.72;;;3.28;75.68
77023;BME280;65952;51.440;-2.054;2023-04-25T03:11:21;100395.50;;;3.22;75.81
77023;BME280;65952;51.440;-2.054;2023-04-25T03:13:46;100401.19;;;3.17;76.22
77023;BME280;65952;51.440;-2.054;2023-04-25T03:16:12;100405.00;;;3.13;76.32
77023;BME280;65952;51.440;-2.054;2023-04-25T03:18:37;100402.00;;;3.06;76.44
77023;BME280;65952;51.440;-2.054;2023-04-25T03:21:03;100395.22;;;3.02;76.70
77023;BME280;65952;51.440;-2.054;2023-04-25T03:23:28;100408.63;;;3.01;76.77
77023;BME280;65952;51.440;-2.054;2023-04-25T03:25:54;100407.88;;;2.99;76.84
77023;BME280;65952;51.440;-2.054;2023-04-25T03:28:19;100415.22;;;2.95;76.73
77023;BME280;65952;51.440;-2.054;2023-04-25T03:30:45;100415.06;;;2.85;76.83
77023;BME280;65952;51.440;-2.054;2023-04-25T03:33:10;100414.56;;;2.80;76.88
77023;BME280;65952;51.440;-2.054;2023-04-25T03:35:36;100412.03;;;2.79;77.18
77023;BME280;65952;51.440;-2.054;2023-04-25T03:38:01;100399.25;;;2.72;77.50
77023;BME280;65952;51.440;-2.054;2023-04-25T03:40:27;100407.66;;;2.66;77.59
77023;BME280;65952;51.440;-2.054;2023-04-25T03:42:52;100412.25;;;2.64;77.71
77023;BME280;65952;51.440;-2.054;2023-04-25T03:45:17;100408.97;;;2.60;77.69
77023;BME280;65952;51.440;-2.054;2023-04-25T03:47:43;100413.53;;;2.58;77.87
77023;BME280;65952;51.440;-2.054;2023-04-25T03:50:09;100429.66;;;2.55;77.77
77023;BME280;65952;51.440;-2.054;2023-04-25T03:52:34;100423.84;;;2.50;77.77
77023;BME280;65952;51.440;-2.054;2023-04-25T03:55:00;100424.06;;;2.47;77.80
77023;BME280;65952;51.440;-2.054;2023-04-25T03:57:25;100433.84;;;2.47;78.15
77023;BME280;65952;51.440;-2.054;2023-04-25T03:59:51;100437.31;;;2.47;77.98
77023;BME280;65952;51.440;-2.054;2023-04-25T04:02:17;100442.06;;;2.55;78.05
77023;BME280;65952;51.440;-2.054;2023-04-25T04:04:43;100447.59;;;2.52;77.90
77023;BME280;65952;51.440;-2.054;2023-04-25T04:07:09;100444.09;;;2.51;78.04
77023;BME280;65952;51.440;-2.054;2023-04-25T04:09:35;100446.22;;;2.46;78.09
77023;BME280;65952;51.440;-2.054;2023-04-25T04:12:01;100454.28;;;2.44;78.34
77023;BME280;65952;51.440;-2.054;2023-04-25T04:14:26;100459.91;;;2.40;78.35
77023;BME280;65952;51.440;-2.054;2023-04-25T04:16:52;100466.19;;;2.39;78.44
77023;BME280;65952;51.440;-2.054;2023-04-25T04:19:17;100453.66;;;2.41;78.46
77023;BME280;65952;51.440;-2.054;2023-04-25T04:21:43;100461.63;;;2.41;78.64
77023;BME280;65952;51.440;-2.054;2023-04-25T04:24:08;100464.16;;;2.42;78.60
77023;BME280;65952;51.440;-2.054;2023-04-25T04:26:35;100460.66;;;2.42;78.38
77023;BME280;65952;51.440;-2.054;2023-04-25T04:29:02;100468.09;;;2.37;78.51
77023;BME280;65952;51.440;-2.054;2023-04-25T04:31:28;100461.44;;;2.31;78.49
77023;BME280;65952;51.440;-2.054;2023-04-25T04:33:53;100467.28;;;2.23;78.46
77023;BME280;65952;51.440;-2.054;2023-04-25T04:36:19;100473.78;;;2.19;78.65
77023;BME280;65952;51.440;-2.054;2023-04-25T04:38:48;100465.19;;;2.16;78.56
77023;BME280;65952;51.440;-2.054;2023-04-25T04:41:14;100468.16;;;2.11;78.71
77023;BME280;65952;51.440;-2.054;2023-04-25T04:43:39;100474.88;;;2.04;78.69
77023;BME280;65952;51.440;-2.054;2023-04-25T04:46:05;100472.31;;;2.02;78.69
77023;BME280;65952;51.440;-2.054;2023-04-25T04:48:33;100479.44;;;2.02;78.72
77023;BME280;65952;51.440;-2.054;2023-04-25T04:50:59;100479.63;;;1.99;78.69
77023;BME280;65952;51.440;-2.054;2023-04-25T04:53:25;100480.69;;;1.96;78.90
77023;BME280;65952;51.440;-2.054;2023-04-25T04:55:50;100478.78;;;1.98;78.94
77023;BME280;65952;51.440;-2.054;2023-04-25T04:58:16;100490.75;;;2.04;78.78
77023;BME280;65952;51.440;-2.054;2023-04-25T05:00:41;100491.47;;;2.06;78.93
77023;BME280;65952;51.440;-2.054;2023-04-25T05:03:07;100488.13;;;2.04;78.83
77023;BME280;65952;51.440;-2.054;2023-04-25T05:05:32;100496.06;;;2.04;78.88
77023;BME280;65952;51.440;-2.054;2023-04-25T05:07:58;100493.41;;;2.04;78.95
77023;BME280;65952;51.440;-2.054;2023-04-25T05:10:23;100504.84;;;2.04;78.69
77023;BME280;65952;51.440;-2.054;2023-04-25T05:12:49;100499.44;;;2.06;78.93
77023;BME280;65952;51.440;-2.054;2023-04-25T05:15:14;100497.41;;;2.09;78.75
77023;BME280;65952;51.440;-2.054;2023-04-25T05:17:40;100500.69;;;2.13;78.79
77023;BME280;65952;51.440;-2.054;2023-04-25T05:20:08;100505.56;;;2.19;78.76
77023;BME280;65952;51.440;-2.054;2023-04-25T05:22:34;100507.03;;;2.23;78.78
77023;BME280;65952;51.440;-2.054;2023-04-25T05:25:00;100521.31;;;2.34;78.79
77023;BME280;65952;51.440;-2.054;2023-04-25T05:27:26;100521.72;;;2.40;78.54
77023;BME280;65952;51.440;-2.054;2023-04-25T05:29:52;100522.13;;;2.47;78.24
77023;BME280;65952;51.440;-2.054;2023-04-25T05:32:18;100522.53;;;2.54;78.01
77023;BME280;65952;51.440;-2.054;2023-04-25T05:34:43;100518.59;;;2.59;77.87
77023;BME280;65952;51.440;-2.054;2023-04-25T05:37:09;100533.09;;;2.67;77.83
77023;BME280;65952;51.440;-2.054;2023-04-25T05:39:35;100534.13;;;2.77;77.59
77023;BME280;65952;51.440;-2.054;2023-04-25T05:42:00;100535.88;;;2.89;76.65
77023;BME280;65952;51.440;-2.054;2023-04-25T05:44:26;100534.44;;;2.97;76.43
77023;BME280;65952;51.440;-2.054;2023-04-25T05:46:52;100532.34;;;3.13;74.81
77023;BME280;65952;51.440;-2.054;2023-04-25T05:49:17;100538.69;;;3.23;74.62
77023;BME280;65952;51.440;-2.054;2023-04-25T05:51:42;100535.09;;;3.36;73.53
77023;BME280;65952;51.440;-2.054;2023-04-25T05:54:08;100529.56;;;3.50;72.63
77023;BME280;65952;51.440;-2.054;2023-04-25T05:56:33;100543.34;;;3.55;72.91
77023;BME280;65952;51.440;-2.054;2023-04-25T05:58:58;100550.34;;;3.56;72.86
77023;BME280;65952;51.440;-2.054;2023-04-25T06:01:24;100536.50;;;3.64;72.81
77023;BME280;65952;51.440;-2.054;2023-04-25T06:03:50;100543.38;;;3.78;71.87
77023;BME280;65952;51.440;-2.054;2023-04-25T06:06:16;100542.19;;;3.94;70.87
77023;BME280;65952;51.440;-2.054;2023-04-25T06:08:42;100545.47;;;3.97;71.14
77023;BME280;65952;51.440;-2.054;2023-04-25T06:11:07;100541.63;;;4.01;71.04
77023;BME280;65952;51.440;-2.054;2023-04-25T06:13:33;100546.81;;;4.14;69.84
77023;BME280;65952;51.440;-2.054;2023-04-25T06:15:58;100540.16;;;4.20;70.06
77023;BME280;65952;51.440;-2.054;2023-04-25T06:18:23;100543.06;;;4.17;70.91
77023;BME280;65952;51.440;-2.054;2023-04-25T06:20:49;100545.38;;;4.21;71.17
77023;BME280;65952;51.440;-2.054;2023-04-25T06:23:14;100546.81;;;4.26;71.12
77023;BME280;65952;51.440;-2.054;2023-04-25T06:25:40;100550.31;;;4.26;71.59
77023;BME280;65952;51.440;-2.054;2023-04-25T06:28:05;100555.38;;;4.29;71.86
77023;BME280;65952;51.440;-2.054;2023-04-25T06:30:30;100549.47;;;4.37;71.97
77023;BME280;65952;51.440;-2.054;2023-04-25T06:32:56;100557.78;;;4.44;71.52
77023;BME280;65952;51.440;-2.054;2023-04-25T06:35:21;100559.34;;;4.58;71.54
77023;BME280;65952;51.440;-2.054;2023-04-25T06:37:47;100564.00;;;4.88;70.94
77023;BME280;65952;51.440;-2.054;2023-04-25T06:40:12;100561.19;;;5.97;71.69
77023;BME280;65952;51.440;-2.054;2023-04-25T06:42:38;100559.81;;;7.92;67.44
77023;BME280;65952;51.440;-2.054;2023-04-25T06:45:03;100563.06;;;10.14;61.01
77023;BME280;65952;51.440;-2.054;2023-04-25T06:47:29;100555.91;;;12.15;53.45
77023;BME280;65952;51.440;-2.054;2023-04-25T06:49:55;100545.53;;;14.21;46.53
77023;BME280;65952;51.440;-2.054;2023-04-25T06:52:20;100544.88;;;15.16;41.97
77023;BME280;65952;51.440;-2.054;2023-04-25T06:54:46;100556.03;;;16.06;40.41
77023;BME280;65952;51.440;-2.054;2023-04-25T06:57:11;100555.97;;;17.65;37.64
77023;BME280;65952;51.440;-2.054;2023-04-25T06:59:37;100559.41;;;18.46;34.72
77023;BME280;65952;51.440;-2.054;2023-04-25T07:02:02;100559.69;;;19.22;33.27
77023;BME280;65952;51.440;-2.054;2023-04-25T07:04:28;100567.72;;;19.99;31.44
77023;BME280;65952;51.440;-2.054;2023-04-25T07:06:54;100566.91;;;20.54;29.46
77023;BME280;65952;51.440;-2.054;2023-04-25T07:09:20;100570.63;;;20.41;28.90
77023;BME280;65952;51.440;-2.054;2023-04-25T07:11:45;100568.78;;;20.54;28.59
77023;BME280;65952;51.440;-2.054;2023-04-25T07:14:11;100563.63;;;21.01;28.63
77023;BME280;65952;51.440;-2.054;2023-04-25T07:16:36;100563.44;;;20.84;28.21
77023;BME280;65952;51.440;-2.054;2023-04-25T07:19:01;100569.53;;;21.40;27.76
77023;BME280;65952;51.440;-2.054;2023-04-25T07:21:27;100572.50;;;21.93;27.32
77023;BME280;65952;51.440;-2.054;2023-04-25T07:23:52;100565.63;;;22.14;26.41
77023;BME280;65952;51.440;-2.054;2023-04-25T07:26:18;100559.53;;;22.48;25.82
77023;BME280;65952;51.440;-2.054;2023-04-25T07:28:43;100569.53;;;22.30;26.24
77023;BME280;65952;51.440;-2.054;2023-04-25T07:31:08;100561.22;;;22.78;25.51
77023;BME280;65952;51.440;-2.054;2023-04-25T07:33:34;100565.34;;;22.92;26.63
77023;BME280;65952;51.440;-2.054;2023-04-25T07:36:00;100578.91;;;22.58;25.76
77023;BME280;65952;51.440;-2.054;2023-04-25T07:38:25;100573.03;;;23.53;24.01
77023;BME280;65952;51.440;-2.054;2023-04-25T07:40:51;100572.78;;;23.37;24.44
77023;BME280;65952;51.440;-2.054;2023-04-25T07:43:16;100573.91;;;22.96;24.63
77023;BME280;65952;51.440;-2.054;2023-04-25T07:45:43;100580.16;;;22.79;24.04
77023;BME280;65952;51.440;-2.054;2023-04-25T07:48:08;100574.75;;;22.44;24.48
77023;BME280;65952;51.440;-2.054;2023-04-25T07:50:34;100575.84;;;22.07;24.99
77023;BME280;65952;51.440;-2.054;2023-04-25T07:52:59;100585.59;;;21.06;25.78
77023;BME280;65952;51.440;-2.054;2023-04-25T07:55:24;100582.72;;;20.08;26.65
77023;BME280;65952;51.440;-2.054;2023-04-25T07:57:50;100577.41;;;20.13;27.68
77023;BME280;65952;51.440;-2.054;2023-04-25T08:00:15;100585.72;;;20.44;26.50
77023;BME280;65952;51.440;-2.054;2023-04-25T08:02:41;100579.34;;;20.32;27.50
77023;BME280;65952;51.440;-2.054;2023-04-25T08:05:07;100580.09;;;20.57;27.53
77023;BME280;65952;51.440;-2.054;2023-04-25T08:07:33;100578.94;;;20.65;26.43
77023;BME280;65952;51.440;-2.054;2023-04-25T08:09:59;100580.63;;;21.15;26.79
77023;BME280;65952;51.440;-2.054;2023-04-25T08:12:25;100590.72;;;21.45;25.80
77023;BME280;65952;51.440;-2.054;2023-04-25T08:14:50;100583.28;;;21.64;25.31
77023;BME280;65952;51.440;-2.054;2023-04-25T08:17:16;100595.00;;;21.53;26.72
77023;BME280;65952;51.440;-2.054;2023-04-25T08:19:41;100594.41;;;22.05;24.29
77023;BME280;65952;51.440;-2.054;2023-04-25T08:22:06;100591.75;;;21.32;24.77
77023;BME280;65952;51.440;-2.054;2023-04-25T08:24:32;100589.78;;;20.90;25.78
77023;BME280;65952;51.440;-2.054;2023-04-25T08:26:58;100589.66;;;20.67;26.29
77023;BME280;65952;51.440;-2.054;2023-04-25T08:29:24;100589.88;;;20.84;26.41
77023;BME280;65952;51.440;-2.054;2023-04-25T08:31:51;100591.63;;;20.78;24.95
77023;BME280;65952;51.440;-2.054;2023-04-25T08:34:18;100592.59;;;20.28;26.19
77023;BME280;65952;51.440;-2.054;2023-04-25T08:36:43;100594.25;;;19.78;27.38
77023;BME280;65952;51.440;-2.054;2023-04-25T08:39:08;100592.59;;;20.28;26.35
77023;BME280;65952;51.440;-2.054;2023-04-25T08:41:36;100595.31;;;20.65;25.33
77023;BME280;65952;51.440;-2.054;2023-04-25T08:44:03;100599.78;;;20.59;26.03
77023;BME280;65952;51.440;-2.054;2023-04-25T08:46:30;100597.84;;;20.04;26.13
77023;BME280;65952;51.440;-2.054;2023-04-25T08:49:01;100595.50;;;19.57;25.87
77023;BME280;65952;51.440;-2.054;2023-04-25T08:51:31;100596.31;;;19.58;25.94
77023;BME280;65952;51.440;-2.054;2023-04-25T08:54:09;100598.78;;;18.95;26.80
77023;BME280;65952;51.440;-2.054;2023-04-25T08:56:36;100603.66;;;18.73;27.66
77023;BME280;65952;51.440;-2.054;2023-04-25T08:59:02;100591.50;;;19.60;28.22
77023;BME280;65952;51.440;-2.054;2023-04-25T09:01:28;100591.09;;;20.51;26.24
77023;BME280;65952;51.440;-2.054;2023-04-25T09:03:53;100590.47;;;20.67;25.97
77023;BME280;65952;51.440;-2.054;2023-04-25T09:06:19;100585.00;;;20.11;25.42
77023;BME280;65952;51.440;-2.054;2023-04-25T09:08:44;100594.31;;;19.72;26.94
77023;BME280;65952;51.440;-2.054;2023-04-25T09:11:12;100586.81;;;19.67;26.52
77023;BME280;65952;51.440;-2.054;2023-04-25T09:13:38;100597.31;;;18.99;26.94
77023;BME280;65952;51.440;-2.054;2023-04-25T09:16:03;100589.91;;;18.55;28.05
77023;BME280;65952;51.440;-2.054;2023-04-25T09:18:34;100599.16;;;18.40;28.16
77023;BME280;65952;51.440;-2.054;2023-04-25T09:23:39;100590.09;;;19.19;26.88
77023;BME280;65952;51.440;-2.054;2023-04-25T09:26:07;100593.91;;;19.04;27.00
77023;BME280;65952;51.440;-2.054;2023-04-25T09:28:32;100591.88;;;18.86;28.08
77023;BME280;65952;51.440;-2.054;2023-04-25T09:31:00;100597.97;;;17.82;27.29
77023;BME280;65952;51.440;-2.054;2023-04-25T09:33:30;100594.81;;;18.12;29.00
77023;BME280;65952;51.440;-2.054;2023-04-25T09:36:02;100591.47;;;17.57;28.82
77023;BME280;65952;51.440;-2.054;2023-04-25T09:38:30;100595.84;;;17.58;29.58
77023;BME280;65952;51.440;-2.054;2023-04-25T09:40:56;100583.31;;;17.77;27.97
77023;BME280;65952;51.440;-2.054;2023-04-25T09:43:23;100582.81;;;16.99;28.45
77023;BME280;65952;51.440;-2.054;2023-04-25T09:45:49;100592.09;;;16.06;29.61
77023;BME280;65952;51.440;-2.054;2023-04-25T09:48:18;100582.88;;;15.79;30.11
77023;BME280;65952;51.440;-2.054;2023-04-25T09:50:44;100586.81;;;14.75;31.02
77023;BME280;65952;51.440;-2.054;2023-04-25T09:53:10;100590.09;;;15.93;31.67
77023;BME280;65952;51.440;-2.054;2023-04-25T09:55:35;100582.56;;;16.52;30.66
77023;BME280;65952;51.440;-2.054;2023-04-25T09:58:04;100584.94;;;17.17;30.37
77023;BME280;65952;51.440;-2.054;2023-04-25T10:00:32;100583.72;;;17.33;28.46
77023;BME280;65952;51.440;-2.054;2023-04-25T10:03:01;100586.19;;;16.31;28.76
77023;BME280;65952;51.440;-2.054;2023-04-25T10:05:30;100584.56;;;14.63;33.37
77023;BME280;65952;51.440;-2.054;2023-04-25T10:07:59;100587.94;;;14.81;33.67
77023;BME280;65952;51.440;-2.054;2023-04-25T10:10:27;100593.28;;;15.32;31.69
77023;BME280;65952;51.440;-2.054;2023-04-25T10:12:54;100587.31;;;15.58;30.56
77023;BME280;65952;51.440;-2.054;2023-04-25T10:15:21;100594.47;;;15.08;33.10
77023;BME280;65952;51.440;-2.054;2023-04-25T10:17:47;100585.09;;;15.25;31.85
77023;BME280;65952;51.440;-2.054;2023-04-25T10:20:13;100595.47;;;15.87;32.78
77023;BME280;65952;51.440;-2.054;2023-04-25T10:22:41;100591.91;;;15.21;29.60
77023;BME280;65952;51.440;-2.054;2023-04-25T10:25:08;100584.00;;;14.53;31.41
77023;BME280;65952;51.440;-2.054;2023-04-25T10:27:34;100581.00;;;15.30;33.56
77023;BME280;65952;51.440;-2.054;2023-04-25T10:30:15;100589.97;;;14.63;34.52
77023;BME280;65952;51.440;-2.054;2023-04-25T10:32:45;100589.28;;;14.91;34.00
77023;BME280;65952;51.440;-2.054;2023-04-25T10:35:16;100585.56;;;14.92;34.32
77023;BME280;65952;51.440;-2.054;2023-04-25T10:40:26;100591.84;;;14.48;33.53
77023;BME280;65952;51.440;-2.054;2023-04-25T10:42:55;100592.00;;;14.02;32.32
77023;BME280;65952;51.440;-2.054;2023-04-25T10:45:21;100603.22;;;13.52;34.65
77023;BME280;65952;51.440;-2.054;2023-04-25T10:47:47;100602.31;;;13.05;31.33
77023;BME280;65952;51.440;-2.054;2023-04-25T10:50:16;100607.31;;;12.85;33.43
77023;BME280;65952;51.440;-2.054;2023-04-25T10:52:42;100603.09;;;12.43;35.03
77023;BME280;65952;51.440;-2.054;2023-04-25T10:55:08;100591.84;;;12.79;33.55
77023;BME280;65952;51.440;-2.054;2023-04-25T11:02:45;100597.13;;;11.75;35.93
77023;BME280;65952;51.440;-2.054;2023-04-25T11:07:45;100600.16;;;12.61;33.41
77023;BME280;65952;51.440;-2.054;2023-04-25T11:10:14;100598.22;;;13.09;35.47
77023;BME280;65952;51.440;-2.054;2023-04-25T11:12:39;100611.25;;;12.74;32.96
77023;BME280;65952;51.440;-2.054;2023-04-25T11:15:06;100611.97;;;12.99;33.64
77023;BME280;65952;51.440;-2.054;2023-04-25T11:17:33;100604.47;;;13.41;33.90
77023;BME280;65952;51.440;-2.054;2023-04-25T11:19:58;100596.22;;;13.66;30.48
77023;BME280;65952;51.440;-2.054;2023-04-25T11:22:24;100598.72;;;13.13;32.86
77023;BME280;65952;51.440;-2.054;2023-04-25T11:24:51;100599.19;;;12.93;34.95
77023;BME280;65952;51.440;-2.054;2023-04-25T11:27:16;100593.66;;;12.87;31.97
77023;BME280;65952;51.440;-2.054;2023-04-25T11:29:42;100600.31;;;12.99;31.72
77023;BME280;65952;51.440;-2.054;2023-04-25T11:32:07;100595.28;;;13.74;33.99
77023;BME280;65952;51.440;-2.054;2023-04-25T11:34:33;100600.22;;;12.84;32.87
77023;BME280;65952;51.440;-2.054;2023-04-25T11:37:00;100589.94;;;13.19;32.63
77023;BME280;65952;51.440;-2.054;2023-04-25T11:39:27;100596.41;;;13.41;33.73
77023;BME280;65952;51.440;-2.054;2023-04-25T11:41:53;100586.13;;;13.98;33.63
77023;BME280;65952;51.440;-2.054;2023-04-25T11:44:19;100585.53;;;14.71;33.84
77023;BME280;65952;51.440;-2.054;2023-04-25T11:46:45;100591.03;;;14.33;29.65
77023;BME280;65952;51.440;-2.054;2023-04-25T11:49:12;100603.53;;;13.57;32.79
77023;BME280;65952;51.440;-2.054;2023-04-25T11:51:41;100599.03;;;12.47;32.88
77023;BME280;65952;51.440;-2.054;2023-04-25T11:54:08;100611.66;;;12.94;33.70
77023;BME280;65952;51.440;-2.054;2023-04-25T11:56:33;100604.78;;;12.83;33.46
77023;BME280;65952;51.440;-2.054;2023-04-25T11:59:01;100601.72;;;13.18;33.88
77023;BME280;65952;51.440;-2.054;2023-04-25T12:01:30;100601.59;;;13.66;32.53
77023;BME280;65952;51.440;-2.054;2023-04-25T12:03:57;100597.81;;;13.75;34.17
77023;BME280;65952;51.440;-2.054;2023-04-25T12:06:27;100593.13;;;14.22;30.41
77023;BME280;65952;51.440;-2.054;2023-04-25T12:09:03;100599.78;;;13.81;30.77
77023;BME280;65952;51.440;-2.054;2023-04-25T12:11:32;100603.91;;;12.91;33.15
77023;BME280;65952;51.440;-2.054;2023-04-25T12:14:03;100608.53;;;12.74;33.03
77023;BME280;65952;51.440;-2.054;2023-04-25T12:16:29;100610.94;;;13.00;33.26
77023;BME280;65952;51.440;-2.054;2023-04-25T12:18:55;100606.69;;;12.66;33.15
77023;BME280;65952;51.440;-2.054;2023-04-25T12:21:22;100603.81;;;13.08;32.47
77023;BME280;65952;51.440;-2.054;2023-04-25T12:23:47;100600.09;;;14.02;32.41
77023;BME280;65952;51.440;-2.054;2023-04-25T12:26:13;100602.25;;;14.21;30.79
77023;BME280;65952;51.440;-2.054;2023-04-25T12:28:38;100611.56;;;13.42;32.44
77023;BME280;65952;51.440;-2.054;2023-04-25T12:31:05;100616.56;;;12.82;34.38
77023;BME280;65952;51.440;-2.054;2023-04-25T12:33:33;100617.56;;;12.42;33.07
77023;BME280;65952;51.440;-2.054;2023-04-25T12:35:59;100620.34;;;12.00;35.37
77023;BME280;65952;51.440;-2.054;2023-04-25T12:38:30;100616.44;;;11.95;35.38
77023;BME280;65952;51.440;-2.054;2023-04-25T12:40:57;100621.09;;;12.50;35.63
77023;BME280;65952;51.440;-2.054;2023-04-25T12:43:23;100622.34;;;13.11;35.44
77023;BME280;65952;51.440;-2.054;2023-04-25T12:45:49;100615.69;;;13.76;32.81
77023;BME280;65952;51.440;-2.054;2023-04-25T12:48:18;100616.47;;;13.39;33.39
77023;BME280;65952;51.440;-2.054;2023-04-25T12:50:43;100618.66;;;13.81;31.67
77023;BME280;65952;51.440;-2.054;2023-04-25T12:53:09;100616.34;;;13.93;31.54